^^

STATION HISTORICAL DATA

Daily Summary for October 17, 2017 Units:  English    Metric   Both
« Previous Day
Next Day »
Daily Weekly Monthly Yearly Custom
  Current: High: Low: Average:
Temperature: 53.8 °F 71.0 °F 39.9 °F 55.6 °F
Dew Point: 44.6 °F 49.0 °F 37.9 °F 43.1 °F
Humidity: 71 % 94 % 35 % 67 %
Wind Speed: 0.0 mph 24.2 mph 0.0 mph 6.3 mph
Wind Gust: 0.0 mph 24.2 mph - -
Wind:Calm - - SW
Pressure: 30.10 in 30.20 in 30.09 in -
Precipitation: 0.00 in      
Historical Graphs
 
 
Tabular Data for October 17, 2017
Time Temperature Dew Point Pressure Wind Wind Speed Wind Gust Humidity Rainfall Rate (Hourly) solar Conditions
00:02 40.9 °F 38.5 °F 30.19 in Calm     91 % 0.00 in 0.0 W/m2 RA
00:07 40.8 °F 38.7 °F 30.19 in Calm     92 % 0.00 in 0.0 W/m2 RA
00:13 40.7 °F 38.6 °F 30.19 in Calm     92 % 0.00 in 0.0 W/m2 CLR
00:18 40.6 °F 38.5 °F 30.19 in Calm     92 % 0.00 in 0.0 W/m2 CLR
00:23 40.5 °F 38.4 °F 30.19 in Calm     92 % 0.00 in 0.0 W/m2 CLR
00:28 40.4 °F 38.3 °F 30.19 in Calm     92 % 0.00 in 0.0 W/m2 CLR
00:33 40.3 °F 38.2 °F 30.19 in Calm     92 % 0.00 in 0.0 W/m2 CLR
00:38 40.2 °F 38.1 °F 30.19 in Calm     92 % 0.00 in 0.0 W/m2 CLR
00:43 40.2 °F 38.1 °F 30.19 in Calm     92 % 0.00 in 0.0 W/m2 CLR
00:48 40.2 °F 38.1 °F 30.19 in Calm     92 % 0.00 in 0.0 W/m2 CLR
00:53 40.1 °F 38.0 °F 30.19 in Calm     92 % 0.00 in 0.0 W/m2 CLR
00:59 40.0 °F 37.9 °F 30.19 in Calm     92 % 0.00 in 0.0 W/m2 CLR
01:04 40.0 °F 37.9 °F 30.19 in Calm     92 % 0.00 in 0.0 W/m2 CLR
01:09 39.9 °F 38.0 °F 30.19 in Calm     93 % 0.00 in 0.0 W/m2 CLR
01:14 39.9 °F 38.0 °F 30.19 in Calm     93 % 0.00 in 0.0 W/m2 CLR
01:19 40.0 °F 38.1 °F 30.19 in Calm     93 % 0.00 in 0.0 W/m2 CLR
01:24 40.4 °F 38.5 °F 30.19 in Calm     93 % 0.00 in 0.0 W/m2 CLR
01:29 40.7 °F 38.8 °F 30.19 in Calm     93 % 0.00 in 0.0 W/m2 CLR
01:34 41.0 °F 39.4 °F 30.19 in Calm     94 % 0.00 in 0.0 W/m2 CLR
01:39 41.2 °F 39.3 °F 30.19 in Calm     93 % 0.00 in 0.0 W/m2 CLR
01:45 41.5 °F 39.6 °F 30.19 in Calm     93 % 0.00 in 0.0 W/m2 CLR
01:50 41.5 °F 39.6 °F 30.19 in Calm     93 % 0.00 in 0.0 W/m2 CLR
01:55 41.8 °F 39.9 °F 30.19 in Calm     93 % 0.00 in 0.0 W/m2 CLR
02:00 42.0 °F 40.1 °F 30.19 in Calm     93 % 0.00 in 0.0 W/m2 CLR
02:05 42.1 °F 40.2 °F 30.19 in Calm     93 % 0.00 in 0.0 W/m2 CLR
02:10 42.2 °F 40.0 °F 30.19 in Calm     92 % 0.00 in 0.0 W/m2 CLR
02:15 42.2 °F 40.0 °F 30.19 in Calm     92 % 0.00 in 0.0 W/m2 CLR
02:20 42.2 °F 40.0 °F 30.19 in Calm     92 % 0.00 in 0.0 W/m2 CLR
02:25 42.3 °F 40.1 °F 30.19 in Calm     92 % 0.00 in 0.0 W/m2 CLR
02:30 42.2 °F 40.0 °F 30.19 in Calm     92 % 0.00 in 0.0 W/m2 CLR
02:36 42.1 °F 39.9 °F 30.19 in Calm     92 % 0.00 in 0.0 W/m2 CLR
02:41 42.1 °F 39.9 °F 30.19 in Calm     92 % 0.00 in 0.0 W/m2 CLR
02:46 42.3 °F 39.9 °F 30.19 in Calm     91 % 0.00 in 0.0 W/m2 CLR
02:51 42.3 °F 39.9 °F 30.19 in Calm     91 % 0.00 in 0.0 W/m2 CLR
02:56 42.3 °F 39.9 °F 30.19 in Calm     91 % 0.00 in 0.0 W/m2 CLR
03:01 42.2 °F 39.8 °F 30.19 in Calm     91 % 0.00 in 0.0 W/m2 CLR
03:06 42.4 °F 40.0 °F 30.18 in Calm     91 % 0.00 in 0.0 W/m2 CLR
03:17 43.5 °F 40.5 °F 30.18 in Calm     89 % 0.00 in 0.0 W/m2 CLR
03:22 43.8 °F 40.5 °F 30.18 in Calm     88 % 0.00 in 0.0 W/m2 CLR
03:27 44.0 °F 40.4 °F 30.18 in Calm     87 % 0.00 in 0.0 W/m2 CLR
03:32 44.2 °F 40.3 °F 30.18 in Calm     86 % 0.00 in 0.0 W/m2 CLR
03:37 44.2 °F 40.3 °F 30.18 in Calm     86 % 0.00 in 0.0 W/m2 CLR
03:42 44.3 °F 40.4 °F 30.18 in Calm     86 % 0.00 in 0.0 W/m2 CLR
03:47 44.2 °F 40.0 °F 30.19 in Calm     85 % 0.00 in 0.0 W/m2 CLR
03:52 43.9 °F 39.7 °F 30.19 in Calm     85 % 0.00 in 0.0 W/m2 CLR
03:57 43.6 °F 39.4 °F 30.19 in Calm     85 % 0.00 in 0.0 W/m2 CLR
04:02 43.2 °F 39.0 °F 30.18 in Calm     85 % 0.00 in 0.0 W/m2 CLR
04:07 42.9 °F 39.0 °F 30.18 in Calm     86 % 0.00 in 0.0 W/m2 CLR
04:13 42.8 °F 39.2 °F 30.18 in Calm     87 % 0.00 in 0.0 W/m2 CLR
04:18 43.0 °F 39.4 °F 30.18 in Calm     87 % 0.00 in 0.0 W/m2 CLR
04:23 42.9 °F 39.3 °F 30.18 in Calm     87 % 0.00 in 0.0 W/m2 CLR
04:28 42.8 °F 39.2 °F 30.18 in Calm     87 % 0.00 in 0.0 W/m2 CLR
04:33 42.7 °F 39.4 °F 30.18 in SW 6.0 mph 6.0 mph 88 % 0.00 in 0.0 W/m2 CLR
04:38 43.3 °F 40.0 °F 30.19 in SW 3.5 mph 3.5 mph 88 % 0.00 in 0.0 W/m2 CLR
04:43 44.3 °F 40.4 °F 30.18 in SSW 4.6 mph 4.6 mph 86 % 0.00 in 0.0 W/m2 CLR
04:48 45.3 °F 40.7 °F 30.18 in SSW 4.0 mph 4.0 mph 84 % 0.00 in 0.0 W/m2 CLR
04:53 45.8 °F 40.9 °F 30.18 in SSW 4.6 mph 4.6 mph 83 % 0.00 in 0.0 W/m2 CLR
05:03 46.4 °F 40.9 °F 30.18 in SSW 4.0 mph 4.0 mph 81 % 0.00 in 0.0 W/m2 CLR
05:08 46.7 °F 40.9 °F 30.18 in SSW 4.6 mph 4.6 mph 80 % 0.00 in 0.0 W/m2 CLR
05:13 46.8 °F 41.0 °F 30.18 in SSW 5.8 mph 5.8 mph 80 % 0.00 in 0.0 W/m2 CLR
05:19 46.9 °F 41.1 °F 30.18 in SSW 3.5 mph 3.5 mph 80 % 0.00 in 0.0 W/m2 CLR
05:24 46.9 °F 41.1 °F 30.18 in SSW 3.5 mph 3.5 mph 80 % 0.00 in 0.0 W/m2 CLR
05:29 46.9 °F 40.7 °F 30.18 in SSW 2.3 mph 2.3 mph 79 % 0.00 in 0.0 W/m2 CLR
05:34 46.9 °F 40.7 °F 30.18 in Calm     79 % 0.00 in 0.0 W/m2 CLR
05:39 46.7 °F 40.5 °F 30.18 in Calm     79 % 0.00 in 0.0 W/m2 CLR
05:44 46.4 °F 40.6 °F 30.19 in Calm     80 % 0.00 in 0.0 W/m2 CLR
05:49 46.0 °F 40.2 °F 30.19 in Calm     80 % 0.00 in 0.0 W/m2 CLR
05:54 45.4 °F 39.9 °F 30.19 in Calm     81 % 0.00 in 0.0 W/m2 CLR
06:00 45.1 °F 39.9 °F 30.19 in Calm     82 % 0.00 in 0.0 W/m2 CLR
06:05 44.9 °F 40.0 °F 30.19 in Calm     83 % 0.00 in 0.0 W/m2 CLR
06:10 45.1 °F 40.6 °F 30.18 in SW 3.5 mph 3.5 mph 84 % 0.00 in 0.0 W/m2 CLR
06:15 45.4 °F 40.8 °F 30.19 in SSW 3.0 mph 3.0 mph 84 % 0.00 in 0.0 W/m2 CLR
06:20 45.4 °F 40.5 °F 30.19 in Calm     83 % 0.00 in 0.0 W/m2 CLR
06:25 45.3 °F 40.4 °F 30.19 in Calm     83 % 0.00 in 0.0 W/m2 CLR
06:30 45.1 °F 40.6 °F 30.19 in SSW 1.2 mph   84 % 0.00 in 0.0 W/m2 CLR
06:36 45.0 °F 40.5 °F 30.18 in SSW 2.3 mph 2.3 mph 84 % 0.00 in 0.0 W/m2 CLR
06:41 44.9 °F 40.7 °F 30.18 in SSW 2.3 mph 2.3 mph 85 % 0.00 in 0.0 W/m2 CLR
06:46 44.9 °F 40.7 °F 30.19 in SW 3.5 mph   85 % 0.00 in 0.0 W/m2 CLR
06:51 45.1 °F 40.9 °F 30.19 in SW 5.8 mph 5.8 mph 85 % 0.00 in 0.0 W/m2 CLR
06:56 45.4 °F 41.2 °F 30.19 in SSW 2.3 mph 2.3 mph 85 % 0.00 in 0.0 W/m2 CLR
07:01 45.7 °F 41.1 °F 30.19 in SSW 2.3 mph   84 % 0.00 in 0.0 W/m2 CLR
07:06 45.8 °F 41.2 °F 30.19 in SSW 7.0 mph 7.0 mph 84 % 0.00 in 0.0 W/m2 CLR
07:11 46.0 °F 41.4 °F 30.18 in SW 5.8 mph 5.8 mph 84 % 0.00 in 0.0 W/m2 CLR
07:17 46.3 °F 41.4 °F 30.18 in SSW 5.0 mph 5.0 mph 83 % 0.00 in 5.0 W/m2 CLR
07:22 46.5 °F 41.6 °F 30.18 in SSW 4.6 mph 4.6 mph 83 % 0.00 in 9.0 W/m2 CLR
07:27 46.7 °F 41.8 °F 30.18 in SSW 6.0 mph 6.0 mph 83 % 0.00 in 12.0 W/m2 CLR
07:32 46.8 °F 41.6 °F 30.19 in SSW 4.6 mph 4.6 mph 82 % 0.00 in 14.0 W/m2 CLR
07:37 46.8 °F 41.6 °F 30.19 in SSW 5.0 mph 5.0 mph 82 % 0.00 in 19.0 W/m2 CLR
07:42 46.9 °F 41.7 °F 30.19 in SSW 3.5 mph 3.5 mph 82 % 0.00 in 21.0 W/m2 CLR
07:47 46.8 °F 41.6 °F 30.19 in Calm     82 % 0.00 in 25.0 W/m2 CLR
07:52 46.7 °F 41.8 °F 30.19 in SSW 3.5 mph   83 % 0.00 in 26.0 W/m2 CLR
07:57 46.5 °F 41.6 °F 30.19 in Calm     83 % 0.00 in 28.0 W/m2 CLR
08:02 46.4 °F 41.8 °F 30.19 in Calm     84 % 0.00 in 32.0 W/m2 CLR
08:08 46.4 °F 41.8 °F 30.19 in Calm     84 % 0.00 in 40.0 W/m2 CLR
08:13 46.4 °F 41.8 °F 30.19 in SSW 3.5 mph 3.5 mph 84 % 0.00 in 60.0 W/m2 CLR
08:18 46.6 °F 42.3 °F 30.19 in Calm     85 % 0.00 in 67.0 W/m2 CLR
08:23 47.1 °F 42.8 °F 30.19 in SSW 5.8 mph 5.8 mph 85 % 0.00 in 137.0 W/m2 CLR
08:28 48.0 °F 43.4 °F 30.19 in SSW 5.0 mph 5.0 mph 84 % 0.00 in 156.0 W/m2 CLR
08:33 49.1 °F 44.2 °F 30.19 in SSW 2.0 mph   83 % 0.00 in 174.0 W/m2 CLR
08:38 50.1 °F 44.5 °F 30.19 in SSW 2.0 mph 2.0 mph 81 % 0.00 in 193.0 W/m2 CLR
08:43 51.1 °F 44.8 °F 30.19 in SW 5.8 mph 5.8 mph 79 % 0.00 in 211.0 W/m2 CLR
08:48 51.8 °F 44.8 °F 30.20 in SW 9.0 mph 9.0 mph 77 % 0.00 in 230.0 W/m2 CLR
08:53 52.5 °F 45.2 °F 30.20 in SW 8.1 mph 8.1 mph 76 % 0.00 in 250.0 W/m2 CLR
08:58 53.0 °F 45.3 °F 30.19 in SSW 6.0 mph 6.0 mph 75 % 0.00 in 264.0 W/m2 CLR
09:03 53.4 °F 45.3 °F 30.19 in SW 8.1 mph 8.1 mph 74 % 0.00 in 279.0 W/m2 CLR
09:09 54.0 °F 45.5 °F 30.19 in SW 12.7 mph 12.7 mph 73 % 0.00 in 295.0 W/m2 CLR
09:14 54.5 °F 46.0 °F 30.19 in SW 6.9 mph 6.9 mph 73 % 0.00 in 311.0 W/m2 CLR
09:19 54.9 °F 45.7 °F 30.19 in SW 11.5 mph 11.5 mph 71 % 0.00 in 325.0 W/m2 CLR
09:24 55.4 °F 46.2 °F 30.19 in SW 5.0 mph 5.0 mph 71 % 0.00 in 341.0 W/m2 CLR
09:29 56.2 °F 46.5 °F 30.19 in SW 3.5 mph 3.5 mph 70 % 0.00 in 355.0 W/m2 CLR
09:34 56.8 °F 46.7 °F 30.19 in SW 4.6 mph 4.6 mph 69 % 0.00 in 371.0 W/m2 CLR
09:39 57.1 °F 46.2 °F 30.19 in SW 11.5 mph 11.5 mph 67 % 0.00 in 383.0 W/m2 CLR
09:44 57.6 °F 46.7 °F 30.19 in SSW 6.0 mph 6.0 mph 67 % 0.00 in 397.0 W/m2 CLR
09:49 58.1 °F 47.2 °F 30.19 in SW 6.9 mph 6.9 mph 67 % 0.00 in 404.0 W/m2 CLR
09:54 58.4 °F 46.7 °F 30.19 in SW 10.4 mph 10.4 mph 65 % 0.00 in 425.0 W/m2 CLR
10:00 58.7 °F 46.5 °F 30.19 in SW 12.7 mph 12.7 mph 64 % 0.00 in 413.0 W/m2 CLR
10:05 59.5 °F 46.9 °F 30.18 in SW 3.5 mph 3.5 mph 63 % 0.00 in 452.0 W/m2 CLR
10:10 59.9 °F 47.3 °F 30.18 in SW 4.0 mph 4.0 mph 63 % 0.00 in 464.0 W/m2 CLR
10:15 60.6 °F 47.1 °F 30.19 in SW 11.5 mph 11.5 mph 61 % 0.00 in 476.0 W/m2 CLR
10:20 61.5 °F 47.0 °F 30.19 in SW 18.4 mph 18.4 mph 59 % 0.00 in 489.0 W/m2 CLR
10:25 61.7 °F 46.3 °F 30.19 in SW 8.0 mph 8.0 mph 57 % 0.00 in 501.0 W/m2 CLR
10:30 61.8 °F 45.9 °F 30.19 in SW 13.8 mph 13.8 mph 56 % 0.00 in 510.0 W/m2 CLR
10:35 62.0 °F 46.1 °F 30.18 in SW 24.2 mph 24.2 mph 56 % 0.00 in 524.0 W/m2 CLR
10:40 62.5 °F 46.1 °F 30.19 in SW 4.0 mph 4.0 mph 55 % 0.00 in 534.0 W/m2 CLR
10:46 63.0 °F 46.1 °F 30.18 in SW 17.3 mph 17.3 mph 54 % 0.00 in 547.0 W/m2 CLR
10:49 63.1 °F 46.7 °F 30.18 in WSW 12.7 mph 12.7 mph 55 % 0.00 in 552.0 W/m2 CLR
10:54 63.4 °F 46.0 °F 30.18 in WSW 12.7 mph 12.7 mph 53 % 0.00 in 561.0 W/m2 CLR
10:59 63.7 °F 45.7 °F 30.18 in SW 12.7 mph 12.7 mph 52 % 0.00 in 571.0 W/m2 CLR
11:04 63.9 °F 46.4 °F 30.18 in SW 13.0 mph 13.0 mph 53 % 0.00 in 578.0 W/m2 CLR
11:09 64.3 °F 46.3 °F 30.18 in SW 17.3 mph 17.3 mph 52 % 0.00 in 587.0 W/m2 CLR
11:14 64.7 °F 46.1 °F 30.18 in SW 13.0 mph 13.0 mph 51 % 0.00 in 594.0 W/m2 CLR
11:19 65.0 °F 45.9 °F 30.18 in WSW 18.4 mph 18.4 mph 50 % 0.00 in 603.0 W/m2 CLR
11:25 65.0 °F 46.4 °F 30.18 in SW 12.7 mph 12.7 mph 51 % 0.00 in 610.0 W/m2 CLR
11:30 65.1 °F 46.0 °F 30.18 in SW 13.8 mph 13.8 mph 50 % 0.00 in 615.0 W/m2 CLR
11:35 65.7 °F 46.5 °F 30.18 in SW 13.8 mph 13.8 mph 50 % 0.00 in 624.0 W/m2 CLR
11:40 65.8 °F 46.1 °F 30.18 in SW 20.7 mph 20.7 mph 49 % 0.00 in 629.0 W/m2 CLR
11:45 65.9 °F 47.3 °F 30.17 in SW 11.5 mph 11.5 mph 51 % 0.00 in 636.0 W/m2 CLR
11:50 66.2 °F 47.0 °F 30.17 in SW 14.0 mph 14.0 mph 50 % 0.00 in 640.0 W/m2 CLR
11:55 66.6 °F 46.8 °F 30.17 in SW 11.5 mph 11.5 mph 49 % 0.00 in 647.0 W/m2 CLR
12:00 66.6 °F 46.3 °F 30.17 in SW 13.8 mph 13.8 mph 48 % 0.00 in 650.0 W/m2 CLR
12:05 66.6 °F 47.4 °F 30.17 in SW 16.1 mph 16.1 mph 50 % 0.00 in 654.0 W/m2 CLR
12:10 66.6 °F 46.3 °F 30.17 in SW 17.3 mph 17.3 mph 48 % 0.00 in 657.0 W/m2 CLR
12:15 66.7 °F 46.9 °F 30.17 in SW 19.6 mph 19.6 mph 49 % 0.00 in 661.0 W/m2 CLR
12:20 66.9 °F 46.6 °F 30.17 in SW 14.0 mph 14.0 mph 48 % 0.00 in 664.0 W/m2 CLR
12:26 66.9 °F 46.0 °F 30.16 in SW 15.0 mph 15.0 mph 47 % 0.00 in 666.0 W/m2 CLR
12:31 67.2 °F 47.4 °F 30.16 in WSW 17.3 mph 17.3 mph 49 % 0.00 in 668.0 W/m2 CLR
12:36 67.9 °F 47.5 °F 30.16 in WSW 19.6 mph 19.6 mph 48 % 0.00 in 670.0 W/m2 CLR
12:42 67.7 °F 46.7 °F 30.16 in SW 11.5 mph 11.5 mph 47 % 0.00 in 671.0 W/m2 CLR
12:47 67.9 °F 46.9 °F 30.16 in SW 13.8 mph 13.8 mph 47 % 0.00 in 670.0 W/m2 CLR
12:52 68.0 °F 47.6 °F 30.15 in SW 17.0 mph 17.0 mph 48 % 0.00 in 671.0 W/m2 CLR
12:57 68.2 °F 46.6 °F 30.15 in SW 9.2 mph 9.2 mph 46 % 0.00 in 670.0 W/m2 CLR
13:02 68.2 °F 47.2 °F 30.15 in SW 11.5 mph 11.5 mph 47 % 0.00 in 670.0 W/m2 CLR
13:07 68.8 °F 47.7 °F 30.15 in SW 16.1 mph 16.1 mph 47 % 0.00 in 670.0 W/m2 CLR
13:12 68.8 °F 46.6 °F 30.14 in SW 16.1 mph 16.1 mph 45 % 0.00 in 666.0 W/m2 CLR
13:17 68.9 °F 46.7 °F 30.14 in SW 4.0 mph 4.0 mph 45 % 0.00 in 664.0 W/m2 CLR
13:22 68.9 °F 46.1 °F 30.14 in SW 13.8 mph 13.8 mph 44 % 0.00 in 663.0 W/m2 CLR
13:28 69.5 °F 47.8 °F 30.14 in SW 20.7 mph 20.7 mph 46 % 0.00 in 659.0 W/m2 CLR
13:33 69.4 °F 46.5 °F 30.13 in SW 11.5 mph 11.5 mph 44 % 0.00 in 654.0 W/m2 CLR
13:38 69.5 °F 46.6 °F 30.13 in SW 11.5 mph 11.5 mph 44 % 0.00 in 652.0 W/m2 CLR
13:43 69.7 °F 46.8 °F 30.13 in SW 9.2 mph 9.2 mph 44 % 0.00 in 647.0 W/m2 CLR
13:48 69.9 °F 46.4 °F 30.13 in SW 15.0 mph 15.0 mph 43 % 0.00 in 642.0 W/m2 CLR
13:53 69.7 °F 47.4 °F 30.13 in SW 13.8 mph 13.8 mph 45 % 0.00 in 638.0 W/m2 CLR
13:58 69.9 °F 47.0 °F 30.13 in SW 11.5 mph 11.5 mph 44 % 0.00 in 629.0 W/m2 CLR
14:03 70.2 °F 49.0 °F 30.13 in WSW 12.0 mph 12.0 mph 47 % 0.00 in 626.0 W/m2 CLR
14:08 70.2 °F 46.0 °F 30.12 in SW 19.0 mph 19.0 mph 42 % 0.00 in 619.0 W/m2 CLR
14:13 70.0 °F 47.1 °F 30.12 in SSW 12.7 mph 12.7 mph 44 % 0.00 in 612.0 W/m2 CLR
14:19 70.1 °F 46.6 °F 30.12 in SW 15.0 mph 15.0 mph 43 % 0.00 in 605.0 W/m2 CLR
14:24 70.1 °F 46.6 °F 30.12 in SSW 11.5 mph 11.5 mph 43 % 0.00 in 596.0 W/m2 CLR
14:29 70.3 °F 46.7 °F 30.12 in SSW 12.0 mph 12.0 mph 43 % 0.00 in 591.0 W/m2 CLR
14:34 70.2 °F 45.4 °F 30.11 in SSW 19.6 mph 19.6 mph 41 % 0.00 in 582.0 W/m2 CLR
14:39 70.2 °F 47.3 °F 30.11 in SSW 16.1 mph 16.1 mph 44 % 0.00 in 571.0 W/m2 CLR
14:44 70.3 °F 45.5 °F 30.11 in SW 13.8 mph 13.8 mph 41 % 0.00 in 564.0 W/m2 CLR
14:49 70.5 °F 46.3 °F 30.11 in SW 12.7 mph 12.7 mph 42 % 0.00 in 552.0 W/m2 CLR
14:54 70.9 °F 46.0 °F 30.11 in WSW 13.0 mph 13.0 mph 41 % 0.00 in 541.0 W/m2 CLR
15:00 71.0 °F 46.1 °F 30.11 in SW 13.0 mph 13.0 mph 41 % 0.00 in 529.0 W/m2 CLR
15:05 70.7 °F 43.8 °F 30.11 in SW 17.3 mph 17.3 mph 38 % 0.00 in 522.0 W/m2 CLR
15:10 70.4 °F 44.9 °F 30.11 in SSW 15.0 mph 15.0 mph 40 % 0.00 in 487.0 W/m2 CLR
15:15 70.5 °F 45.7 °F 30.10 in SSW 16.1 mph 16.1 mph 41 % 0.00 in 497.0 W/m2 CLR
15:20 70.6 °F 44.4 °F 30.10 in SW 17.3 mph 17.3 mph 39 % 0.00 in 483.0 W/m2 CLR
15:25 70.7 °F 43.1 °F 30.10 in SW 11.5 mph 11.5 mph 37 % 0.00 in 473.0 W/m2 CLR
15:30 70.8 °F 44.6 °F 30.10 in SW 10.4 mph 10.4 mph 39 % 0.00 in 461.0 W/m2 CLR
15:35 70.7 °F 41.7 °F 30.10 in SW 19.6 mph 19.6 mph 35 % 0.00 in 446.0 W/m2 CLR
15:40 70.7 °F 43.8 °F 30.10 in SW 16.1 mph 16.1 mph 38 % 0.00 in 434.0 W/m2 CLR
15:46 70.9 °F 43.3 °F 30.10 in SW 11.5 mph 11.5 mph 37 % 0.00 in 418.0 W/m2 CLR
15:51 70.6 °F 43.7 °F 30.10 in SW 10.4 mph 10.4 mph 38 % 0.00 in 406.0 W/m2 CLR
15:56 71.0 °F 44.1 °F 30.10 in WSW 3.5 mph 3.5 mph 38 % 0.00 in 392.0 W/m2 CLR
16:01 70.9 °F 43.3 °F 30.10 in SW 11.5 mph 11.5 mph 37 % 0.00 in 376.0 W/m2 CLR
16:06 70.8 °F 44.6 °F 30.10 in WSW 11.5 mph 11.5 mph 39 % 0.00 in 364.0 W/m2 CLR
16:11 70.6 °F 44.4 °F 30.10 in WSW 13.8 mph 13.8 mph 39 % 0.00 in 348.0 W/m2 CLR
16:16 70.8 °F 43.9 °F 30.09 in SW 10.4 mph 10.4 mph 38 % 0.00 in 332.0 W/m2 CLR
16:21 70.9 °F 43.3 °F 30.09 in SW 8.0 mph 8.0 mph 37 % 0.00 in 320.0 W/m2 CLR
16:26 70.7 °F 42.4 °F 30.09 in SW 10.4 mph 10.4 mph 36 % 0.00 in 301.0 W/m2 CLR
16:31 70.8 °F 43.2 °F 30.09 in SW 8.1 mph 8.1 mph 37 % 0.00 in 285.0 W/m2 CLR
16:36 70.7 °F 43.1 °F 30.09 in SW 8.1 mph 8.1 mph 37 % 0.00 in 264.0 W/m2 CLR
16:42 70.6 °F 43.1 °F 30.09 in SW 2.3 mph 2.3 mph 37 % 0.00 in 246.0 W/m2 CLR
16:47 70.8 °F 43.2 °F 30.09 in SW 12.0 mph 12.0 mph 37 % 0.00 in 227.0 W/m2 CLR
16:52 70.6 °F 43.7 °F 30.09 in SW 3.5 mph 3.5 mph 38 % 0.00 in 204.0 W/m2 CLR
16:57 70.4 °F 42.9 °F 30.09 in SW 17.3 mph 17.3 mph 37 % 0.00 in 128.0 W/m2 CLR
17:02 70.1 °F 42.6 °F 30.09 in SW 9.2 mph 9.2 mph 37 % 0.00 in 98.0 W/m2 CLR
17:07 69.9 °F 43.1 °F 30.09 in SSW 8.0 mph 8.0 mph 38 % 0.00 in 70.0 W/m2 CLR
17:12 69.6 °F 43.5 °F 30.09 in SSW 10.4 mph 10.4 mph 39 % 0.00 in 42.0 W/m2 CLR
17:18 69.4 °F 43.4 °F 30.09 in SW 2.3 mph 2.3 mph 39 % 0.00 in 56.0 W/m2 CLR
17:23 69.1 °F 43.8 °F 30.09 in SW 1.2 mph 1.2 mph 40 % 0.00 in 25.0 W/m2 CLR
17:28 68.8 °F 44.1 °F 30.09 in Calm     41 % 0.00 in 23.0 W/m2 CLR
17:38 68.0 °F 43.4 °F 30.09 in SW 2.3 mph 2.3 mph 41 % 0.00 in 19.0 W/m2 CLR
17:44 67.7 °F 43.8 °F 30.09 in SW 3.5 mph 3.5 mph 42 % 0.00 in 18.0 W/m2 CLR
17:49 67.3 °F 43.4 °F 30.09 in Calm     42 % 0.00 in 16.0 W/m2 CLR
17:54 66.8 °F 44.2 °F 30.09 in Calm     44 % 0.00 in 14.0 W/m2 CLR
17:59 66.4 °F 45.0 °F 30.09 in Calm     46 % 0.00 in 12.0 W/m2 CLR
18:04 65.4 °F 46.3 °F 30.09 in Calm     50 % 0.00 in 11.0 W/m2 CLR
18:09 63.9 °F 46.4 °F 30.09 in Calm     53 % 0.00 in 7.0 W/m2 CLR
18:14 62.2 °F 46.3 °F 30.10 in Calm     56 % 0.00 in 5.0 W/m2 CLR
18:19 60.4 °F 46.0 °F 30.09 in Calm     59 % 0.00 in 0.0 W/m2 CLR
18:24 58.7 °F 45.7 °F 30.09 in Calm     62 % 0.00 in 0.0 W/m2 CLR
18:29 57.4 °F 44.9 °F 30.09 in Calm     63 % 0.00 in 0.0 W/m2 CLR
18:34 56.3 °F 45.1 °F 30.10 in Calm     66 % 0.00 in 0.0 W/m2 CLR
18:40 55.2 °F 44.8 °F 30.09 in Calm     68 % 0.00 in 0.0 W/m2 CLR
18:45 54.5 °F 44.9 °F 30.09 in Calm     70 % 0.00 in 0.0 W/m2 CLR
18:50 53.8 °F 44.6 °F 30.10 in Calm     71 % 0.00 in 0.0 W/m2 CLR
Compliments of Weather Underground - 2 mb